Latest Weather Observations for Orange Airport

IDN60801

Issued at 6:32 pm EST Monday 20 May 2019 (issued every 10 minutes, with the page automatically refreshed every 10 minutes)

About weather observations | Map of weather stations | Latest weather observations for NSW | Other Formats
Station Details ID: 063303 Name: ORANGE AIRPORT AWS Lat: -33.38 Lon: 149.13 Height: 944.65 m
Data from the previous 72 hours. | See also: Recent months at Orange Airport
Date/Time
EST
Temp
°C
App
Temp
°C
Dew
Point
°C
Rel
Hum
%
Delta-T
°C
Wind Press
QNH
hPa
Press
MSL
hPa
Rain since
9am
mm
Dir  Spd
km/h
Gust
km/h
Spd
kts
Gust
kts
20/06:30pm 10.6 8.3 5.8 72 2.3 NW 7 9 4 5 1026.9 1026.9 0.0
20/06:00pm 11.2 8.9 5.9 70 2.6 NNW 7 7 4 4 1026.7 1026.6 0.0
20/05:30pm 11.7 8.9 5.3 65 3.1 N 9 11 5 6 1026.4 1026.3 0.0
20/05:00pm 13.4 10.8 6.0 61 3.7 NNW 9 11 5 6 1026.4 1026.3 0.0
20/04:30pm 14.8 11.5 6.4 57 4.3 NNW 13 20 7 11 1026.4 1026.3 0.0
20/04:00pm 15.7 11.9 7.5 58 4.3 NNW 17 20 9 11 1026.5 1026.4 0.0
20/03:30pm 15.9 12.0 6.9 55 4.7 NNW 17 24 9 13 1026.5 1026.4 0.0
20/03:00pm 15.5 12.1 7.8 60 4.0 N 15 20 8 11 1026.7 1026.6 0.0
20/02:30pm 15.1 11.3 7.4 60 4.0 N 17 24 9 13 1026.7 1026.6 0.0
20/02:00pm 15.2 12.2 7.5 60 4.0 NNW 13 17 7 9 1026.9 1026.9 0.0
20/01:30pm 15.7 12.2 8.9 64 3.7 NW 17 20 9 11 1027.1 1027.1 0.0
20/01:00pm 15.6 12.8 9.9 69 3.1 NW 15 20 8 11 1027.5 1027.4 0.0
20/12:30pm 15.3 12.4 9.7 69 3.1 NNW 15 20 8 11 1027.8 1027.8 0.0
20/12:00pm 15.2 11.4 9.1 67 3.3 NW 19 24 10 13 1028.5 1028.4 0.0
20/11:30am 15.1 10.3 9.0 67 3.3 NNW 24 30 13 16 1028.9 1028.9 0.0
20/11:00am 15.2 10.8 9.1 67 3.3 NNW 22 28 12 15 1029.2 1029.2 0.0
20/10:30am 13.7 9.6 8.7 72 2.6 NNW 20 26 11 14 1029.6 1029.6 0.0
20/10:00am 13.9 9.8 8.7 71 2.7 NNW 20 26 11 14 1029.8 1029.8 0.0
20/09:30am 12.6 8.8 8.9 78 2.0 NNW 19 26 10 14 1029.9 1029.9 0.0
20/09:00am 11.9 10.3 10.3 90 0.9 N 9 13 5 7 1030.0 1030.0 0.0
20/08:30am 10.7 9.2 10.5 99 0.1 N 9 11 5 6 1029.7 1029.7 0.0
20/08:24am 10.4 8.8 10.2 99 0.1 N 9 11 5 6 1029.7 1029.7 0.0
20/08:00am 8.5 6.8 8.4 99 0.1 NNW 7 9 4 5 1029.6 1029.6 0.0
20/07:30am 4.8 1.9 4.7 99 0.0 NNW 9 9 5 5 1029.2 1029.2 0.0
20/07:00am 5.6 3.4 5.5 99 0.0 NNW 6 7 3 4 1029.0 1029.0 0.0
20/06:30am 5.6 3.8 5.5 99 0.0 WNW 4 6 2 3 1028.8 1028.8 0.0
20/06:00am 5.5 3.1 5.4 99 0.0 WNW 7 7 4 4 1028.8 1028.8 0.0
20/05:30am 6.7 5.9 6.6 99 0.0 CALM 0 0 0 0 1028.7 1028.7 0.0
20/05:00am 6.5 5.7 6.4 99 0.0 CALM 0 0 0 0 1028.7 1028.7 0.0
20/04:30am 6.1 5.2 6.0 99 0.0 CALM 0 0 0 0 1028.7 1028.7 0.0
20/04:00am 6.5 5.7 6.4 99 0.0 CALM 0 0 0 0 1028.8 1028.8 0.0
20/03:30am 5.5 4.5 5.4 99 0.0 CALM 0 0 0 0 1028.7 1028.7 0.0
20/03:06am 5.3 3.5 5.2 99 0.0 S 4 7 2 4 1028.8 1028.8 0.0
20/03:00am 5.1 2.8 5.0 99 0.0 S 6 7 3 4 1028.8 1028.8 0.0
20/02:41am 4.1 2.7 3.4 95 0.3 CALM 0 0 0 0 1028.7 1028.7 0.0
20/02:30am 4.3 2.8 3.1 92 0.5 CALM 0 0 0 0 1028.8 1028.8 0.0
20/02:00am 5.9 4.8 5.3 96 0.3 CALM 0 0 0 0 1029.0 1029.0 0.0
20/01:30am 6.2 5.2 5.6 96 0.3 CALM 0 0 0 0 1029.1 1029.1 0.0
20/01:00am 7.0 6.2 6.4 96 0.3 CALM 0 0 0 0 1029.3 1029.3 0.0
20/12:30am 6.7 4.6 5.7 93 0.5 S 6 7 3 4 1029.6 1029.6 0.0
20/12:00am 7.1 4.5 6.2 94 0.4 SSE 9 9 5 5 1029.6 1029.6 0.0
 
Date/Time
EST
Temp
°C
App
Temp
°C
Dew
Point
°C
Rel
Hum
%
Delta-T
°C
Wind Press
QNH
hPa
Press
MSL
hPa
Rain since
9am
mm
Dir  Spd
km/h
Gust
km/h
Spd
kts
Gust
kts
19/11:30pm 6.8 5.8 5.6 92 0.6 CALM 0 0 0 0 1029.7 1029.7 0.0
19/11:00pm 7.7 6.5 6.3 91 0.7 ENE 2 6 1 3 1029.6 1029.6 0.0
19/10:30pm 8.3 5.9 6.9 91 0.7 NE 9 11 5 6 1029.7 1029.7 0.0
19/10:00pm 7.3 5.0 5.8 90 0.7 ENE 7 9 4 5 1029.9 1029.9 0.0
19/09:30pm 7.5 5.3 6.0 90 0.7 NE 7 9 4 5 1030.0 1030.0 0.0
19/09:00pm 7.4 5.0 5.2 86 1.0 NE 7 9 4 5 1030.0 1030.0 0.0
19/08:30pm 7.4 5.9 5.0 85 1.1 SSE 2 7 1 4 1029.9 1029.9 0.0
19/08:00pm 8.8 7.9 6.1 83 1.3 CALM 0 0 0 0 1029.7 1029.7 0.0
19/07:30pm 8.5 7.4 5.3 80 1.5 CALM 0 0 0 0 1029.6 1029.6 0.0
19/07:00pm 9.8 8.9 6.2 78 1.7 CALM 0 0 0 0 1029.3 1029.3 0.0
19/06:30pm 11.0 9.8 6.6 74 2.2 NNW 2 6 1 3 1029.3 1029.3 0.0
19/06:00pm 10.9 8.3 5.9 71 2.4 NNW 9 11 5 6 1029.3 1029.3 0.0
19/05:30pm 12.8 10.6 6.4 65 3.2 NE 7 9 4 5 1029.1 1029.1 0.0
19/05:00pm 13.4 11.3 6.5 63 3.5 NE 7 9 4 5 1029.0 1029.0 0.0
19/04:30pm 14.6 12.5 6.7 59 4.0 NE 7 11 4 6 1028.9 1028.9 0.0
19/04:00pm 15.0 12.8 6.3 56 4.4 NNE 7 9 4 5 1029.1 1029.1 0.0
19/03:30pm 15.3 13.8 6.8 57 4.4 NNE 4 9 2 5 1029.2 1029.2 0.0
19/03:00pm 15.6 12.9 5.5 51 5.0 N 9 11 5 6 1029.4 1029.4 0.0
19/02:30pm 15.8 11.4 4.5 47 5.6 N 17 24 9 13 1029.3 1029.3 0.0
19/02:00pm 16.7 12.6 4.4 44 6.1 N 15 24 8 13 1029.4 1029.4 0.0
19/01:30pm 16.0 11.6 4.7 47 5.6 N 17 22 9 12 1029.8 1029.8 0.0
19/01:00pm 17.3 13.4 5.3 45 6.0 N 15 20 8 11 1030.0 1030.0 0.0
19/12:30pm 16.3 12.6 6.4 52 5.1 NNE 15 22 8 12 1030.4 1030.4 0.0
19/12:00pm 16.6 13.7 8.3 58 4.4 NNE 13 22 7 12 1031.0 1031.0 0.0
19/11:30am 15.7 12.5 8.4 62 3.9 NE 15 20 8 11 1031.4 1031.5 0.0
19/11:00am 15.2 12.1 8.7 65 3.4 NE 15 24 8 13 1032.0 1032.0 0.0
19/10:30am 14.0 11.3 9.0 72 2.7 NNE 13 19 7 10 1032.4 1032.5 0.0
19/10:00am 13.1 10.5 9.4 78 2.0 NNE 13 17 7 9 1032.7 1032.8 0.0
19/09:30am 12.3 9.7 9.3 82 1.6 NE 13 20 7 11 1032.7 1032.8 0.0
19/09:00am 11.4 10.1 10.0 91 0.7 NE 7 11 4 6 1032.6 1032.7 0.2
19/08:30am 9.6 9.5 9.5 99 0.1 CALM 0 0 0 0 1032.5 1032.6 0.2
19/08:10am 8.7 8.4 8.6 99 0.1 CALM 0 0 0 0 1032.5 1032.6 0.2
19/08:00am 7.7 7.1 7.6 99 0.0 CALM 0 0 0 0 1032.4 1032.5 0.2
19/07:30am 3.7 2.3 3.6 99 0.0 CALM 0 0 0 0 1032.3 1032.3 0.2
19/07:15am 3.3 1.8 3.2 99 0.0 CALM 0 0 0 0 1032.1 1032.1 0.2
19/07:00am 3.0 1.5 2.9 99 0.0 CALM 0 0 0 0 1031.9 1031.9 0.0
19/06:30am 2.5 0.9 2.4 99 0.0 CALM 0 0 0 0 1031.5 1031.6 0.0
19/06:04am 2.6 1.0 2.5 99 0.0 CALM 0 0 0 0 1031.4 1031.5 0.0
19/06:00am 3.2 1.3 3.1 99 0.0 SSE 2 6 1 3 1031.4 1031.5 0.0
19/05:30am 2.3 -0.7 2.2 99 0.0 SSE 7 9 4 5 1031.3 1031.3 0.0
19/05:00am 3.4 1.2 3.3 99 0.0 S 4 7 2 4 1031.0 1031.0 0.0
19/04:30am 3.9 2.5 3.8 99 0.0 CALM 0 0 0 0 1030.8 1030.8 0.0
19/04:13am 4.1 2.4 4.0 99 0.0 SE 2 6 1 3 1030.7 1030.7 0.0
19/04:00am 5.4 3.0 5.3 99 0.0 SE 7 7 4 4 1030.7 1030.7 0.0
19/03:52am 4.4 1.8 4.3 99 0.0 SE 7 9 4 5 1030.8 1030.8 0.0
19/03:30am 3.8 1.3 3.7 99 0.0 SSE 6 7 3 4 1030.9 1030.9 0.0
19/03:00am 5.0 3.5 4.9 99 0.0 SW 2 7 1 4 1030.8 1030.8 0.0
19/02:30am 5.4 2.6 5.3 99 0.0 SSE 9 11 5 6 1030.8 1030.8 0.0
19/02:00am 5.0 2.4 4.3 95 0.3 ESE 7 9 4 5 1030.9 1030.9 0.0
19/01:59am 5.1 2.6 4.5 96 0.3 E 7 9 4 5 1030.9 1030.9 0.0
19/01:30am 6.4 4.4 6.1 98 0.1 NE 6 9 3 5 1031.1 1031.1 0.0
19/01:00am 5.1 3.7 3.4 89 0.7 CALM 0 6 0 3 1030.9 1030.9 0.0
19/12:30am 7.4 5.2 6.0 91 0.7 ENE 7 11 4 6 1031.1 1031.1 0.0
19/12:00am 7.4 4.5 6.3 93 0.5 ENE 11 15 6 8 1030.9 1030.9 0.0
 
Date/Time
EST
Temp
°C
App
Temp
°C
Dew
Point
°C
Rel
Hum
%
Delta-T
°C
Wind Press
QNH
hPa
Press
MSL
hPa
Rain since
9am
mm
Dir  Spd
km/h
Gust
km/h
Spd
kts
Gust
kts
18/11:30pm 5.3 2.7 3.3 87 0.9 ENE 6 9 3 5 1031.2 1031.2 0.0
18/11:00pm 5.3 2.6 2.7 83 1.1 ESE 6 7 3 4 1031.6 1031.7 0.0
18/10:30pm 4.8 1.9 2.8 87 0.9 ESE 7 9 4 5 1031.5 1031.6 0.0
18/10:24pm 5.2 2.4 3.4 88 0.8 SE 7 9 4 5 1031.6 1031.7 0.0
18/10:07pm 5.6 3.1 3.6 87 0.9 SE 6 7 3 4 1031.9 1031.9 0.0
18/10:00pm 5.9 3.5 4.2 89 0.8 SE 6 9 3 5 1032.0 1032.0 0.0
18/09:30pm 6.6 4.1 4.6 87 0.9 SSE 7 9 4 5 1032.0 1032.0 0.0
18/09:00pm 6.1 2.8 4.3 88 0.8 E 11 22 6 12 1032.0 1032.0 0.0
18/08:30pm 6.5 3.2 4.5 87 0.9 SW 11 11 6 6 1031.7 1031.8 0.0
18/08:00pm 6.3 3.8 3.6 83 1.2 SW 6 7 3 4 1031.4 1031.5 0.0
18/07:30pm 7.1 4.4 3.7 79 1.5 SW 7 9 4 5 1031.2 1031.2 0.0
18/07:00pm 7.1 3.7 3.9 80 1.4 SSW 11 11 6 6 1030.7 1030.7 0.0
18/06:30pm 9.8 6.7 5.6 75 2.0 S 11 13 6 7 1030.3 1030.3 0.0
18/06:00pm 10.3 7.5 5.1 70 2.5 S 9 13 5 7 1030.1 1030.1 0.0
18/05:30pm 11.0 8.3 5.5 69 2.7 S 9 11 5 6 1029.9 1029.9 0.0
18/05:00pm 13.2 10.6 6.1 62 3.5 SSW 9 11 5 6 1029.7 1029.7 0.0
18/04:30pm 15.2 12.8 7.0 58 4.2 SSW 9 11 5 6 1029.6 1029.6 0.0
18/04:00pm 15.6 13.4 7.9 60 4.0 SW 9 13 5 7 1029.6 1029.6 0.0
18/03:30pm 15.4 12.8 6.2 54 4.7 SSE 9 11 5 6 1029.7 1029.7 0.0
18/03:00pm 15.9 13.8 5.8 51 5.1 S 6 9 3 5 1029.6 1029.6 0.0
18/02:30pm 17.5 15.1 5.4 45 6.1 NW 7 13 4 7 1029.6 1029.6 0.0
18/02:00pm 16.8 13.9 4.8 45 6.0 NW 9 11 5 6 1029.7 1029.7 0.0
18/01:30pm 16.7 14.5 6.2 50 5.4 W 7 11 4 6 1029.8 1029.8 0.0
18/01:00pm 15.3 14.0 5.8 53 4.8 SW 2 9 1 5 1030.1 1030.1 0.0
18/12:30pm 15.5 13.2 4.8 49 5.3 NNW 6 11 3 6 1030.4 1030.4 0.0
18/12:00pm 16.6 13.7 6.4 51 5.2 NW 11 17 6 9 1031.0 1031.0 0.0
18/11:30am 17.1 14.2 6.6 50 5.4 NNW 11 20 6 11 1031.4 1031.5 0.0
18/11:00am 14.4 11.2 5.2 54 4.5 NNW 11 15 6 8 1031.7 1031.8 0.0
18/10:30am 15.8 13.5 7.3 57 4.4 N 9 15 5 8 1032.0 1032.0 0.0
18/10:00am 14.5 12.6 8.9 69 3.0 N 9 13 5 7 1032.1 1032.1 0.0
18/09:30am 13.9 12.0 9.1 73 2.6 N 9 11 5 6 1032.0 1032.0 0.0
18/09:00am 13.4 12.2 9.5 77 2.1 N 6 9 3 5 1031.7 1031.8 0.0
18/08:30am 12.0 12.1 10.1 88 1.0 CALM 0 0 0 0 1031.6 1031.7 0.0
18/08:00am 8.6 8.3 8.5 99 0.1 CALM 0 0 0 0 1031.5 1031.6 0.0
18/07:30am 5.6 3.8 5.5 99 0.0 W 4 6 2 3 1031.2 1031.2 0.0
18/07:07am 4.2 2.9 4.1 99 0.0 CALM 0 0 0 0 1030.9 1030.9 0.0
18/07:00am 3.5 2.0 3.2 98 0.1 CALM 0 0 0 0 1030.8 1030.8 0.0
18/06:56am 3.3 1.8 3.0 98 0.1 CALM 0 0 0 0 1030.8 1030.8 0.0
18/06:30am 3.7 2.3 3.3 97 0.2 CALM 0 0 0 0 1030.4 1030.4 0.0
18/06:00am 3.8 2.4 3.5 98 0.1 CALM 0 0 0 0 1030.2 1030.2 0.0
18/05:30am 4.1 2.7 3.7 97 0.2 CALM 0 0 0 0 1030.0 1030.0 0.0
18/05:00am 3.7 1.5 3.1 96 0.3 W 4 7 2 4 1029.7 1029.7 0.0
18/04:30am 3.6 2.0 2.6 93 0.4 CALM 0 0 0 0 1029.6 1029.6 0.0
18/04:00am 4.1 2.6 2.9 92 0.5 CALM 0 0 0 0 1029.6 1029.6 0.0
18/03:30am 4.6 3.2 3.6 93 0.4 CALM 0 0 0 0 1029.6 1029.6 0.0
18/03:00am 3.8 1.1 2.6 92 0.5 W 6 7 3 4 1029.7 1029.7 0.0
18/02:30am 3.7 1.6 1.6 86 0.9 SSE 2 6 1 3 1029.6 1029.6 0.0
18/02:00am 3.6 0.7 1.6 87 0.8 SSE 6 7 3 4 1029.7 1029.7 0.0
18/01:30am 3.7 1.9 1.3 84 1.0 CALM 0 9 0 5 1029.8 1029.8 0.0
18/01:00am 4.1 2.4 1.8 85 1.0 CALM 0 0 0 0 1030.0 1030.0 0.0
18/12:30am 3.8 2.1 1.7 86 0.9 CALM 0 0 0 0 1029.9 1029.9 0.0
18/12:00am 5.0 3.4 2.5 84 1.1 CALM 0 0 0 0 1030.0 1030.0 0.0
 
Date/Time
EST
Temp
°C
App
Temp
°C
Dew
Point
°C
Rel
Hum
%
Delta-T
°C
Wind Press
QNH
hPa
Press
MSL
hPa
Rain since
9am
mm
Dir  Spd
km/h
Gust
km/h
Spd
kts
Gust
kts
17/11:30pm 4.7 2.9 3.2 90 0.7 SSE 2 6 1 3 1030.0 1030.0 0.0
17/11:00pm 4.6 1.7 2.6 87 0.9 SSE 7 7 4 4 1030.0 1030.0 0.0
17/10:30pm 4.0 1.1 2.4 89 0.7 S 7 7 4 4 1030.1 1030.1 0.0
17/10:00pm 4.4 1.7 2.8 89 0.7 S 6 7 3 4 1030.2 1030.2 0.0
17/09:30pm 4.3 1.4 2.7 89 0.7 S 7 7 4 4 1030.2 1030.2 0.0
17/09:00pm 4.1 0.6 1.3 82 1.2 S 9 9 5 5 1030.0 1030.0 0.0
17/08:30pm 5.6 2.8 3.4 86 1.0 S 7 9 4 5 1029.7 1029.7 0.0
17/08:00pm 6.0 3.2 3.2 82 1.2 S 7 9 4 5 1029.3 1029.3 0.0
17/07:30pm 7.6 5.0 4.0 78 1.6 S 7 9 4 5 1029.0 1029.0 0.0
17/07:00pm 7.2 4.4 3.1 75 1.8 S 7 9 4 5 1028.8 1028.8 0.0

Other formats

Comma delimited format used in spreadsheet applications
http://www.bom.gov.au/fwo/IDN60801/IDN60801.95726.axf

JavaScript Object Notation format (JSON) in row-major order
http://www.bom.gov.au/fwo/IDN60801/IDN60801.95726.json

Data quality

Most of these data are generated automatically and are frequently updated. Quality checks on data are not normally performed. It is possible for incorrect values to appear. Refer to information at About Latest Weather Observations and please check the disclaimer before using these data.